Time;durP1;ratioP1;P1;durP2;ratioP2;P2;SDS_P1;SDS_P2;PMS_P1;PMS_P2;Temp;Humidity;BMP_temperature;BMP_pressure;BME280_temperature;BME280_humidity;BME280_pressure;Samples;Min_cycle;Max_cycle;Signal;HPM_P1;HPM_P2
2022/06/27 00:00:59;;;;;;;0.98;0.30;;;14.00;99.90;;;;;;5043973;28;20076;-71
2022/06/27 00:03:26;;;;;;;0.55;0.32;;;14.00;99.90;;;;;;5026087;28;20642;-71
2022/06/27 00:05:53;;;;;;;0.43;0.30;;;14.00;99.90;;;;;;5044479;28;20099;-71
2022/06/27 00:08:20;;;;;;;0.30;0.20;;;13.90;99.90;;;;;;5044226;28;20173;-71
2022/06/27 00:10:46;;;;;;;0.30;0.20;;;13.90;99.90;;;;;;5043557;28;20561;-71
2022/06/27 00:13:13;;;;;;;0.85;0.32;;;13.90;99.90;;;;;;5010039;28;20091;-71
2022/06/27 00:15:40;;;;;;;1.45;0.60;;;13.80;99.90;;;;;;5044907;28;20128;-71
2022/06/27 00:18:07;;;;;;;0.77;0.40;;;13.80;99.90;;;;;;5043991;28;20128;-71
2022/06/27 00:20:34;;;;;;;0.75;0.40;;;13.80;99.90;;;;;;5044573;28;20260;-71
2022/06/27 00:23:00;;;;;;;0.50;0.25;;;13.80;99.90;;;;;;5043805;28;20087;-71
2022/06/27 00:25:27;;;;;;;0.73;0.32;;;13.80;99.90;;;;;;5044293;28;20076;-71
2022/06/27 00:27:54;;;;;;;0.70;0.30;;;13.80;99.90;;;;;;5018564;28;20729;-71
2022/06/27 00:30:20;;;;;;;0.88;0.30;;;13.80;99.90;;;;;;5009977;28;20084;-71
2022/06/27 00:32:48;;;;;;;1.45;0.52;;;13.90;99.90;;;;;;5043745;28;20049;-71
2022/06/27 00:35:15;;;;;;;0.52;0.28;;;13.90;99.90;;;;;;5043279;28;20063;-71
2022/06/27 00:37:42;;;;;;;0.40;0.28;;;13.90;99.90;;;;;;5025235;28;20578;-71
2022/06/27 00:40:09;;;;;;;0.57;0.30;;;13.90;99.90;;;;;;5025238;28;20246;-72
2022/06/27 00:42:36;;;;;;;0.10;0.10;;;14.00;99.90;;;;;;5027886;28;20082;-71
2022/06/27 00:45:04;;;;;;;0.95;0.30;;;14.00;99.90;;;;;;4997863;28;20106;-72
2022/06/27 00:47:31;;;;;;;0.13;0.13;;;14.00;99.90;;;;;;5023660;28;20487;-71
2022/06/27 00:49:58;;;;;;;0.10;0.10;;;14.00;99.90;;;;;;5042744;28;20658;-71
2022/06/27 00:52:25;;;;;;;0.95;0.40;;;14.00;99.90;;;;;;5025836;28;20060;-71
2022/06/27 00:54:51;;;;;;;0.75;0.30;;;14.00;99.90;;;;;;5025620;28;20136;-71
2022/06/27 00:57:18;;;;;;;0.93;0.20;;;14.00;99.90;;;;;;5009688;28;20077;-71
2022/06/27 00:59:45;;;;;;;0.73;0.40;;;14.00;99.90;;;;;;5043603;28;20139;-71
2022/06/27 01:02:12;;;;;;;0.40;0.25;;;14.00;99.90;;;;;;5025899;28;20053;-71
2022/06/27 01:04:39;;;;;;;0.38;0.25;;;14.00;99.90;;;;;;5025123;28;20049;-71
2022/06/27 01:07:07;;;;;;;0.45;0.20;;;14.00;99.90;;;;;;5043141;28;20098;-71
2022/06/27 01:09:41;;;;;;;0.10;0.10;;;13.90;99.90;;;;;;5010451;28;20052;-71
2022/06/27 01:12:08;;;;;;;0.50;0.25;;;13.90;99.90;;;;;;5025361;28;20531;-71
2022/06/27 01:14:35;;;;;;;0.50;0.10;;;13.90;99.90;;;;;;5025847;28;20134;-71
2022/06/27 01:17:01;;;;;;;0.63;0.25;;;13.90;99.90;;;;;;5043255;28;20041;-71
2022/06/27 01:19:28;;;;;;;0.43;0.20;;;13.90;99.90;;;;;;5025578;28;20059;-71
2022/06/27 01:21:55;;;;;;;0.65;0.20;;;13.90;99.90;;;;;;5024958;28;20581;-71
2022/06/27 01:24:23;;;;;;;0.30;0.20;;;13.90;99.90;;;;;;5025986;28;20092;-71
2022/06/27 01:26:50;;;;;;;0.75;0.20;;;13.90;99.90;;;;;;5042652;28;20141;-71
2022/06/27 01:29:17;;;;;;;1.02;0.40;;;13.90;99.90;;;;;;5043243;28;20231;-71
2022/06/27 01:31:44;;;;;;;0.82;0.28;;;13.80;99.90;;;;;;5025922;28;20048;-71
2022/06/27 01:34:12;;;;;;;0.43;0.20;;;13.80;99.90;;;;;;5010019;28;20098;-71
2022/06/27 01:36:42;;;;;;;0.63;0.20;;;13.80;99.90;;;;;;5026529;28;20111;-71
2022/06/27 01:39:16;;;;;;;0.47;0.28;;;13.80;99.90;;;;;;5024757;28;20132;-71
2022/06/27 01:42:02;;;;;;;1.17;0.40;;;13.90;99.90;;;;;;5009720;28;20045;-71
2022/06/27 01:44:30;;;;;;;0.63;0.30;;;13.90;99.90;;;;;;4994330;28;20075;-71
2022/06/27 01:47:04;;;;;;;0.65;0.30;;;13.90;99.90;;;;;;5041245;28;20134;-71
2022/06/27 01:49:32;;;;;;;0.68;0.32;;;14.00;99.90;;;;;;5044845;28;20110;-71
2022/06/27 01:52:01;;;;;;;0.43;0.20;;;14.00;99.90;;;;;;5025564;28;20138;-71
2022/06/27 01:54:31;;;;;;;0.40;0.20;;;14.00;99.90;;;;;;5011401;28;20065;-71
2022/06/27 01:56:57;;;;;;;0.20;0.20;;;14.00;99.90;;;;;;5026427;28;20072;-71
2022/06/27 01:59:27;;;;;;;0.52;0.20;;;14.00;99.90;;;;;;5010796;28;20087;-71
2022/06/27 02:01:54;;;;;;;0.30;0.20;;;13.90;99.90;;;;;;5010528;28;20060;-71
2022/06/27 02:04:21;;;;;;;0.40;0.20;;;13.90;99.90;;;;;;5010055;28;20099;-71
2022/06/27 02:06:47;;;;;;;0.22;0.20;;;13.90;99.90;;;;;;5009269;28;20132;-71
2022/06/27 02:09:15;;;;;;;0.22;0.10;;;13.80;99.90;;;;;;5026640;28;20159;-71
2022/06/27 02:11:43;;;;;;;0.13;0.10;;;13.80;99.90;;;;;;5009273;28;20049;-71
2022/06/27 02:14:10;;;;;;;0.40;0.20;;;13.70;99.90;;;;;;5026706;28;20128;-71
2022/06/27 02:16:39;;;;;;;0.75;0.25;;;13.70;99.90;;;;;;5042845;28;20055;-71
2022/06/27 02:19:06;;;;;;;0.10;0.10;;;13.70;99.90;;;;;;5029671;28;20630;-71
2022/06/27 02:21:33;;;;;;;0.40;0.30;;;13.60;99.90;;;;;;5021296;28;20102;-71
2022/06/27 02:24:00;;;;;;;0.75;0.30;;;13.70;99.90;;;;;;5026192;28;20144;-71
2022/06/27 02:26:28;;;;;;;0.40;0.30;;;13.60;99.90;;;;;;5043485;28;20528;-71
2022/06/27 02:28:55;;;;;;;0.93;0.32;;;13.60;99.90;;;;;;5044452;28;20156;-71
2022/06/27 02:31:22;;;;;;;0.25;0.20;;;13.60;99.90;;;;;;5043789;28;20067;-71
2022/06/27 02:33:50;;;;;;;0.17;0.10;;;13.50;99.90;;;;;;5020360;28;20135;-71
2022/06/27 02:36:28;;;;;;;0.77;0.40;;;13.50;99.90;;;;;;5025528;28;20051;-71
2022/06/27 02:38:55;;;;;;;0.43;0.20;;;13.50;99.90;;;;;;5010660;28;20044;-71
2022/06/27 02:41:22;;;;;;;0.50;0.20;;;13.40;99.90;;;;;;5042624;28;20079;-71
2022/06/27 02:43:53;;;;;;;0.10;0.10;;;13.40;99.90;;;;;;5043778;28;20127;-71
2022/06/27 02:46:19;;;;;;;0.20;0.20;;;13.30;99.90;;;;;;5043864;28;20059;-72
2022/06/27 02:48:48;;;;;;;0.40;0.20;;;13.30;99.90;;;;;;5025850;28;20369;-71
2022/06/27 02:51:19;;;;;;;0.32;0.28;;;13.30;99.90;;;;;;5009386;28;20052;-71
2022/06/27 02:53:57;;;;;;;0.30;0.30;;;13.30;99.90;;;;;;5010121;28;20159;-71
2022/06/27 02:56:25;;;;;;;1.15;0.43;;;13.20;99.90;;;;;;5026070;28;20080;-71
2022/06/27 02:58:59;;;;;;;0.73;0.10;;;13.20;99.90;;;;;;5026140;28;20053;-71
2022/06/27 03:01:25;;;;;;;0.60;0.20;;;13.20;99.90;;;;;;5043060;28;20570;-71
2022/06/27 03:03:52;;;;;;;0.73;0.20;;;13.10;99.90;;;;;;5008647;28;20384;-71
2022/06/27 03:06:19;;;;;;;0.60;0.20;;;13.10;99.90;;;;;;5025175;28;20496;-71
2022/06/27 03:08:47;;;;;;;0.40;0.25;;;13.10;99.90;;;;;;5025945;28;20088;-71
2022/06/27 03:11:18;;;;;;;0.80;0.22;;;13.00;99.90;;;;;;5025109;28;20072;-71
2022/06/27 03:13:45;;;;;;;0.77;0.30;;;13.00;99.90;;;;;;5039385;28;20052;-71
2022/06/27 03:16:13;;;;;;;0.47;0.30;;;12.90;99.90;;;;;;5043320;28;20080;-71
2022/06/27 03:18:40;;;;;;;0.55;0.25;;;12.90;99.90;;;;;;5042852;28;20127;-71
2022/06/27 03:21:07;;;;;;;0.20;0.20;;;12.90;99.90;;;;;;5009145;28;20084;-71
2022/06/27 03:23:34;;;;;;;0.40;0.20;;;12.90;99.90;;;;;;5021075;28;20045;-71
2022/06/27 03:26:01;;;;;;;0.45;0.43;;;12.90;99.90;;;;;;5042450;28;20060;-72
2022/06/27 03:28:28;;;;;;;0.40;0.20;;;12.80;99.90;;;;;;5042904;28;20135;-71
2022/06/27 03:30:55;;;;;;;0.25;0.15;;;12.80;99.90;;;;;;5043673;28;20140;-71
2022/06/27 03:33:22;;;;;;;0.95;0.35;;;12.70;99.90;;;;;;5025029;28;20469;-71
2022/06/27 03:35:48;;;;;;;1.58;0.38;;;12.70;99.90;;;;;;5042743;28;20156;-71
2022/06/27 03:38:15;;;;;;;0.45;0.20;;;12.70;99.90;;;;;;5042739;28;20051;-72
2022/06/27 03:40:42;;;;;;;0.40;0.30;;;12.70;99.90;;;;;;5024873;28;20083;-71
2022/06/27 03:43:08;;;;;;;1.08;0.40;;;12.70;99.90;;;;;;5025541;28;20506;-71
2022/06/27 03:45:35;;;;;;;0.20;0.20;;;12.70;99.90;;;;;;5025189;28;20128;-72
2022/06/27 03:48:03;;;;;;;0.20;0.20;;;12.70;99.90;;;;;;5008530;28;20127;-71
2022/06/27 03:50:29;;;;;;;0.28;0.20;;;12.70;99.90;;;;;;5025428;28;20132;-71
2022/06/27 03:52:57;;;;;;;0.25;0.25;;;12.70;99.90;;;;;;5041668;28;20279;-71
2022/06/27 03:55:23;;;;;;;0.38;0.28;;;12.70;99.90;;;;;;5008258;28;20135;-71
2022/06/27 03:57:52;;;;;;;1.40;0.28;;;12.60;99.90;;;;;;5025264;28;20080;-70
2022/06/27 04:00:20;;;;;;;0.52;0.30;;;12.70;99.90;;;;;;5009234;28;20306;-70
2022/06/27 04:02:47;;;;;;;0.88;0.30;;;12.70;99.90;;;;;;5024903;28;20076;-70
2022/06/27 04:05:13;;;;;;;0.65;0.43;;;12.70;99.90;;;;;;5042899;28;20083;-71
2022/06/27 04:07:40;;;;;;;0.20;0.17;;;12.60;99.90;;;;;;5042687;28;20048;-71
2022/06/27 04:10:08;;;;;;;0.65;0.30;;;12.70;99.90;;;;;;5024472;28;20063;-71
2022/06/27 04:12:35;;;;;;;0.60;0.35;;;12.70;99.90;;;;;;5008822;28;20066;-71
2022/06/27 04:15:02;;;;;;;0.35;0.20;;;12.70;99.90;;;;;;4992612;28;20681;-71
2022/06/27 04:17:29;;;;;;;0.25;0.20;;;12.70;99.90;;;;;;5046232;28;20049;-71
2022/06/27 04:19:56;;;;;;;0.57;0.32;;;12.70;99.90;;;;;;5011617;28;20132;-72
2022/06/27 04:22:23;;;;;;;0.90;0.40;;;12.70;99.90;;;;;;5046095;28;20047;-71
2022/06/27 04:24:50;;;;;;;0.20;0.20;;;12.80;99.90;;;;;;5045757;28;20075;-71
2022/06/27 04:27:19;;;;;;;1.38;0.20;;;12.80;99.90;;;;;;5046496;28;20048;-71
2022/06/27 04:29:48;;;;;;;0.40;0.20;;;12.80;99.90;;;;;;5042156;28;20694;-71
2022/06/27 04:32:16;;;;;;;0.43;0.40;;;12.80;99.90;;;;;;5028276;28;20049;-71
2022/06/27 04:34:43;;;;;;;0.60;0.28;;;12.90;99.90;;;;;;5045084;28;20132;-71
2022/06/27 04:37:11;;;;;;;0.20;0.20;;;12.90;99.90;;;;;;5028116;28;20098;-71
2022/06/27 04:39:38;;;;;;;1.20;0.40;;;12.90;99.90;;;;;;5046006;28;20126;-71
2022/06/27 04:42:06;;;;;;;0.38;0.30;;;12.90;99.90;;;;;;5045408;28;20500;-71
2022/06/27 04:44:36;;;;;;;0.40;0.25;;;12.90;99.90;;;;;;5028515;28;20894;-71
2022/06/27 04:47:08;;;;;;;0.52;0.20;;;12.90;99.90;;;;;;5027826;28;20132;-71
2022/06/27 04:49:35;;;;;;;0.43;0.38;;;12.90;99.90;;;;;;5027608;28;20044;-71
2022/06/27 04:52:06;;;;;;;0.50;0.28;;;12.80;99.90;;;;;;5044904;28;20136;-71
2022/06/27 04:54:33;;;;;;;0.98;0.85;;;12.80;99.90;;;;;;5009339;28;20048;-71
2022/06/27 04:57:00;;;;;;;0.63;0.40;;;12.80;99.90;;;;;;4995361;28;20124;-71
2022/06/27 04:59:27;;;;;;;0.40;0.40;;;12.80;99.90;;;;;;5044875;28;20049;-71
2022/06/27 05:01:54;;;;;;;0.80;0.80;;;12.80;99.90;;;;;;5041568;28;20702;-71
2022/06/27 05:04:21;;;;;;;0.40;0.30;;;12.90;99.90;;;;;;5041140;28;20057;-71
2022/06/27 05:06:48;;;;;;;0.50;0.20;;;12.90;99.90;;;;;;5025268;28;20885;-71
2022/06/27 05:09:15;;;;;;;0.30;0.20;;;12.90;99.90;;;;;;5003198;28;20412;-71
2022/06/27 05:11:42;;;;;;;0.32;0.30;;;13.00;99.90;;;;;;5039478;28;20140;-71
2022/06/27 05:14:09;;;;;;;0.40;0.20;;;13.00;99.90;;;;;;5042001;28;20076;-71
2022/06/27 05:16:36;;;;;;;0.35;0.30;;;13.00;99.90;;;;;;5043711;28;20040;-71
2022/06/27 05:19:03;;;;;;;1.00;0.30;;;13.10;99.90;;;;;;5042789;28;20057;-71
2022/06/27 05:21:42;;;;;;;0.52;0.17;;;13.10;99.90;;;;;;5042583;28;20044;-71
2022/06/27 05:24:10;;;;;;;0.50;0.13;;;13.10;99.90;;;;;;5040964;28;20140;-70
2022/06/27 05:26:38;;;;;;;0.30;0.28;;;13.20;99.90;;;;;;5024260;28;20084;-71
2022/06/27 05:29:05;;;;;;;0.20;0.20;;;13.30;99.90;;;;;;5025638;28;20075;-70
2022/06/27 05:31:32;;;;;;;0.52;0.30;;;13.30;99.90;;;;;;5021556;28;20048;-71
2022/06/27 05:34:00;;;;;;;0.30;0.20;;;13.30;99.90;;;;;;5026577;28;20041;-70
2022/06/27 05:36:26;;;;;;;0.60;0.60;;;13.40;99.90;;;;;;5022549;28;20556;-70
2022/06/27 05:38:53;;;;;;;0.60;0.30;;;13.40;99.90;;;;;;5025872;28;20053;-70
2022/06/27 05:41:21;;;;;;;0.50;0.30;;;13.50;99.90;;;;;;5023878;28;20053;-71
2022/06/27 05:43:47;;;;;;;0.20;0.20;;;13.60;99.90;;;;;;5040237;28;20053;-71
2022/06/27 05:46:15;;;;;;;0.50;0.30;;;13.60;99.90;;;;;;5042733;28;20381;-70
2022/06/27 05:48:42;;;;;;;0.73;0.25;;;13.70;99.90;;;;;;5042007;28;20076;-71
2022/06/27 05:51:09;;;;;;;0.50;0.20;;;13.80;99.90;;;;;;5024591;28;20084;-70
2022/06/27 05:53:38;;;;;;;0.73;0.40;;;13.80;99.90;;;;;;5040921;28;20716;-70
2022/06/27 05:56:06;;;;;;;1.15;0.43;;;13.90;99.90;;;;;;5025147;28;20057;-71
2022/06/27 05:58:34;;;;;;;0.93;0.30;;;14.00;99.90;;;;;;5025239;28;20132;-71
2022/06/27 06:01:02;;;;;;;0.52;0.30;;;14.10;99.90;;;;;;5021127;28;20052;-71
2022/06/27 06:03:30;;;;;;;0.45;0.30;;;14.20;99.90;;;;;;5014304;28;20069;-70
2022/06/27 06:05:57;;;;;;;1.27;0.50;;;14.30;99.90;;;;;;5043307;28;20059;-72
2022/06/27 06:08:25;;;;;;;0.57;0.30;;;14.40;99.90;;;;;;5022482;28;20491;-71
2022/06/27 06:10:52;;;;;;;1.20;0.35;;;14.50;99.90;;;;;;5041195;28;20148;-71
2022/06/27 06:13:18;;;;;;;0.52;0.25;;;14.60;99.90;;;;;;5023043;28;20084;-71
2022/06/27 06:15:45;;;;;;;0.63;0.47;;;14.70;99.90;;;;;;5043191;28;20082;-71
2022/06/27 06:18:12;;;;;;;1.55;0.60;;;14.80;99.90;;;;;;5039519;28;20453;-71
2022/06/27 06:20:39;;;;;;;3.08;0.60;;;14.80;99.90;;;;;;5041794;28;20077;-71
2022/06/27 06:23:06;;;;;;;2.75;0.70;;;14.90;99.90;;;;;;5006674;28;20045;-71
2022/06/27 06:25:33;;;;;;;1.52;0.60;;;15.00;99.90;;;;;;5040401;28;20148;-71
2022/06/27 06:28:02;;;;;;;0.93;0.65;;;15.00;99.90;;;;;;5041351;28;20151;-71
2022/06/27 06:30:30;;;;;;;2.13;0.40;;;15.10;99.90;;;;;;5041187;28;20053;-71
2022/06/27 06:33:02;;;;;;;1.63;0.50;;;15.20;99.90;;;;;;5008758;28;20072;-71
2022/06/27 06:35:30;;;;;;;0.90;0.40;;;15.30;99.90;;;;;;5009969;28;20463;-72
2022/06/27 06:37:58;;;;;;;3.15;0.55;;;15.30;99.90;;;;;;5008373;28;20132;-72
2022/06/27 06:40:24;;;;;;;0.93;0.40;;;15.40;99.90;;;;;;5024754;28;20515;-72
2022/06/27 06:42:51;;;;;;;0.63;0.40;;;15.40;99.90;;;;;;5024866;28;20055;-71
2022/06/27 06:45:18;;;;;;;0.98;0.50;;;15.50;99.90;;;;;;5025220;28;20237;-71
2022/06/27 06:47:46;;;;;;;1.25;0.40;;;15.50;99.90;;;;;;5043040;28;20148;-71
2022/06/27 06:50:19;;;;;;;1.33;0.57;;;15.60;99.90;;;;;;5008490;28;20433;-71
2022/06/27 06:52:49;;;;;;;0.45;0.30;;;15.70;99.90;;;;;;5009376;28;20126;-71
2022/06/27 06:55:16;;;;;;;1.38;0.50;;;15.70;99.90;;;;;;5008223;28;20079;-71
2022/06/27 06:57:43;;;;;;;1.05;0.40;;;15.80;99.90;;;;;;5008019;28;20111;-71
2022/06/27 07:00:10;;;;;;;2.40;0.80;;;15.90;99.90;;;;;;5024734;28;20060;-71
2022/06/27 07:02:37;;;;;;;2.83;1.05;;;15.90;99.90;;;;;;5007474;28;20083;-71
2022/06/27 07:05:08;;;;;;;2.25;0.90;;;16.00;99.90;;;;;;5023506;28;20563;-71
2022/06/27 07:07:35;;;;;;;3.83;0.85;;;16.00;99.90;;;;;;5042036;28;20124;-71
2022/06/27 07:10:04;;;;;;;1.83;0.75;;;16.00;99.90;;;;;;4990725;28;20059;-71
2022/06/27 07:12:33;;;;;;;2.20;0.70;;;16.00;99.90;;;;;;5041274;28;20065;-72
2022/06/27 07:15:01;;;;;;;2.38;0.80;;;16.10;99.90;;;;;;5024194;28;20102;-72
2022/06/27 07:17:28;;;;;;;2.08;0.63;;;16.10;99.90;;;;;;5023745;28;20080;-72
2022/06/27 07:19:56;;;;;;;2.58;0.80;;;16.20;99.90;;;;;;5039150;28;20127;-71
2022/06/27 07:22:23;;;;;;;2.10;0.60;;;16.20;99.90;;;;;;5006156;28;20053;-71
2022/06/27 07:24:50;;;;;;;1.63;0.77;;;16.30;99.90;;;;;;5039165;28;20140;-72
2022/06/27 07:27:17;;;;;;;1.17;0.50;;;16.30;99.90;;;;;;5035606;28;20063;-72
2022/06/27 07:29:44;;;;;;;2.15;0.85;;;16.40;99.90;;;;;;5021164;28;20504;-72
2022/06/27 07:32:10;;;;;;;2.63;1.08;;;16.30;99.90;;;;;;5022567;28;20543;-72
2022/06/27 07:34:38;;;;;;;2.33;0.70;;;16.30;99.90;;;;;;5025683;28;20091;-72
2022/06/27 07:37:05;;;;;;;1.98;0.70;;;16.20;99.90;;;;;;5026638;28;20267;-72
2022/06/27 07:39:31;;;;;;;2.20;1.10;;;16.20;99.90;;;;;;5042703;28;20396;-72
2022/06/27 07:41:58;;;;;;;2.30;0.98;;;16.30;99.90;;;;;;5026467;28;20611;-72
2022/06/27 07:44:25;;;;;;;1.27;0.70;;;16.30;99.90;;;;;;5042526;28;20408;-72
2022/06/27 07:46:52;;;;;;;2.42;1.13;;;16.40;99.90;;;;;;5044866;28;20671;-72
2022/06/27 07:49:19;;;;;;;1.05;0.68;;;16.50;99.90;;;;;;5044299;28;20519;-72
2022/06/27 07:51:47;;;;;;;1.75;0.60;;;16.40;99.90;;;;;;5047761;28;20139;-72
2022/06/27 07:54:14;;;;;;;1.92;0.52;;;16.40;99.90;;;;;;5049072;28;20049;-70
2022/06/27 07:56:43;;;;;;;2.33;0.80;;;16.40;99.90;;;;;;5048527;28;20053;-71
2022/06/27 07:59:28;;;;;;;2.08;0.47;;;16.40;99.90;;;;;;5028904;28;20053;-72
2022/06/27 08:01:55;;;;;;;1.17;0.40;;;16.50;99.90;;;;;;5028685;28;20053;-72
2022/06/27 08:04:23;;;;;;;2.63;1.25;;;16.60;99.90;;;;;;5026551;28;20053;-71
2022/06/27 08:06:50;;;;;;;1.17;0.68;;;16.70;99.90;;;;;;5027482;28;20060;-71
2022/06/27 08:09:21;;;;;;;1.33;0.52;;;16.80;99.90;;;;;;5031018;28;20126;-71
2022/06/27 08:11:47;;;;;;;1.15;0.60;;;17.00;99.90;;;;;;5045196;28;20496;-71
2022/06/27 08:14:18;;;;;;;2.15;0.50;;;17.10;99.90;;;;;;5042673;28;20132;-71
2022/06/27 08:16:48;;;;;;;4.43;0.63;;;17.30;99.90;;;;;;5045497;28;20075;-71
2022/06/27 08:19:15;;;;;;;1.38;0.80;;;17.40;99.90;;;;;;5034518;28;20491;-71
2022/06/27 08:21:43;;;;;;;1.52;0.90;;;17.40;99.90;;;;;;5028428;28;20114;-71
2022/06/27 08:24:16;;;;;;;1.45;0.73;;;17.40;99.90;;;;;;5014229;28;20168;-71
2022/06/27 08:26:44;;;;;;;1.20;0.50;;;17.40;99.90;;;;;;5011267;28;20048;-72
2022/06/27 08:29:11;;;;;;;3.95;0.80;;;17.50;99.90;;;;;;5029082;28;20576;-72
2022/06/27 08:31:39;;;;;;;1.60;0.70;;;17.60;99.90;;;;;;5045481;28;20135;-73
2022/06/27 08:34:06;;;;;;;2.08;0.80;;;17.70;99.90;;;;;;5044295;28;20048;-72
2022/06/27 08:36:35;;;;;;;2.58;0.80;;;17.80;99.90;;;;;;5043497;28;20099;-71
2022/06/27 08:39:07;;;;;;;1.63;0.77;;;18.00;99.90;;;;;;5016686;28;20276;-71
2022/06/27 08:41:35;;;;;;;2.63;1.35;;;18.00;99.90;;;;;;5013821;28;20048;-71
2022/06/27 08:44:02;;;;;;;4.65;1.00;;;18.10;99.90;;;;;;5040889;28;20049;-71
2022/06/27 08:46:29;;;;;;;1.42;0.80;;;18.10;98.80;;;;;;5030143;28;20060;-71
2022/06/27 08:48:56;;;;;;;2.13;0.60;;;18.30;98.90;;;;;;5023890;28;20479;-71
2022/06/27 08:51:23;;;;;;;1.42;0.75;;;18.40;98.70;;;;;;5045904;28;20465;-73
2022/06/27 08:53:53;;;;;;;0.95;0.50;;;18.40;98.10;;;;;;5042904;28;20080;-72
2022/06/27 08:56:20;;;;;;;4.95;0.80;;;18.60;97.80;;;;;;5009565;28;20072;-72
2022/06/27 08:58:47;;;;;;;1.38;0.75;;;18.70;97.60;;;;;;5047464;28;20132;-72
2022/06/27 09:01:16;;;;;;;1.08;0.50;;;18.80;96.00;;;;;;5011086;28;20153;-72
2022/06/27 09:04:09;;;;;;;1.45;1.05;;;19.00;95.80;;;;;;5027974;28;20049;-72
2022/06/27 09:06:51;;;;;;;;;;;19.50;95.80;;;;;;5029429;28;20053;-72
2022/06/27 09:09:20;;;;;;;0.55;0.40;;;20.10;95.30;;;;;;5046516;28;19968;-72
2022/06/27 09:11:47;;;;;;;1.63;0.52;;;20.50;94.20;;;;;;5029548;28;20098;-72
2022/06/27 09:14:39;;;;;;;1.85;0.60;;;20.70;93.40;;;;;;5029703;28;20128;-72
2022/06/27 09:17:12;;;;;;;0.65;0.40;;;20.60;92.90;;;;;;5031470;28;20057;-72
2022/06/27 09:19:50;;;;;;;;;;;20.40;93.20;;;;;;5029967;28;20051;-72
2022/06/27 09:22:17;;;;;;;1.25;0.50;;;20.30;93.70;;;;;;5047397;28;20266;-71
2022/06/27 09:25:04;;;;;;;1.15;0.68;;;20.10;93.30;;;;;;4993051;28;20049;-72
2022/06/27 09:27:50;;;;;;;0.82;0.57;;;20.10;94.00;;;;;;5027503;28;20045;-71
2022/06/27 09:30:22;;;;;;;1.10;0.50;;;20.10;93.60;;;;;;5015516;28;20048;-72
2022/06/27 09:33:00;;;;;;;0.88;0.40;;;20.20;92.20;;;;;;5046388;28;20052;-72
2022/06/27 09:35:31;;;;;;;1.35;0.52;;;20.10;91.30;;;;;;5051146;28;20064;-72
2022/06/27 09:38:01;;;;;;;1.13;0.57;;;20.40;90.90;;;;;;5044227;28;20110;-72
2022/06/27 09:40:29;;;;;;;0.65;0.35;;;20.60;90.90;;;;;;5032539;28;20095;-72
2022/06/27 09:43:03;;;;;;;1.48;0.80;;;20.60;90.70;;;;;;5043607;28;20106;-72
2022/06/27 09:45:30;;;;;;;1.10;0.50;;;20.60;91.00;;;;;;5009687;28;20053;-72
2022/06/27 09:48:05;;;;;;;0.60;0.40;;;20.90;90.70;;;;;;5046773;28;20140;-72
2022/06/27 09:50:34;;;;;;;1.25;0.47;;;21.10;91.00;;;;;;5012217;28;20068;-71
2022/06/27 09:53:01;;;;;;;1.77;0.50;;;21.10;90.30;;;;;;5028481;28;20045;-71
2022/06/27 09:55:29;;;;;;;1.48;0.57;;;21.20;91.00;;;;;;5028258;28;20389;-87
2022/06/27 09:57:56;;;;;;;2.67;0.68;;;21.30;91.10;;;;;;5013004;28;20053;-71
2022/06/27 10:00:23;;;;;;;0.95;0.45;;;21.40;90.60;;;;;;5046676;28;20045;-71
2022/06/27 10:02:51;;;;;;;1.55;0.55;;;21.10;90.90;;;;;;5045845;28;20053;-71
2022/06/27 10:05:18;;;;;;;1.15;0.65;;;20.90;91.20;;;;;;5045434;28;20140;-71
2022/06/27 10:07:58;;;;;;;2.78;0.80;;;20.70;91.00;;;;;;5046196;28;20545;-71
2022/06/27 10:10:27;;;;;;;0.75;0.50;;;20.50;90.90;;;;;;5046235;28;20069;-71
2022/06/27 10:12:58;;;;;;;0.60;0.50;;;20.60;91.20;;;;;;5012085;28;20080;-71
2022/06/27 10:15:26;;;;;;;0.75;0.30;;;20.70;90.80;;;;;;5028937;28;20085;-71
2022/06/27 10:17:54;;;;;;;1.95;0.70;;;20.70;90.80;;;;;;5045009;28;20593;-71
2022/06/27 10:20:36;;;;;;;1.77;0.50;;;20.70;90.50;;;;;;5027636;28;20045;-72
2022/06/27 10:23:11;;;;;;;2.03;0.80;;;20.50;90.80;;;;;;5025115;28;20124;-71
2022/06/27 10:25:40;;;;;;;1.23;0.60;;;20.50;91.10;;;;;;5042569;28;20143;-71
2022/06/27 10:28:10;;;;;;;1.65;0.73;;;20.80;90.70;;;;;;5042440;28;20079;-71
2022/06/27 10:30:42;;;;;;;1.23;0.70;;;21.30;90.40;;;;;;5045221;28;20057;-71
2022/06/27 10:33:33;;;;;;;0.60;0.35;;;21.50;90.00;;;;;;5042336;28;20175;-71
2022/06/27 10:36:02;;;;;;;1.73;0.52;;;21.70;88.40;;;;;;5040272;28;20077;-71
2022/06/27 10:38:49;;;;;;;0.65;0.40;;;21.50;88.40;;;;;;5042238;28;20067;-72
2022/06/27 10:41:18;;;;;;;0.88;0.40;;;21.40;88.20;;;;;;5026142;28;20454;-71
2022/06/27 10:43:49;;;;;;;2.22;0.90;;;21.40;89.20;;;;;;5042409;28;20251;-71
2022/06/27 10:46:16;;;;;;;2.20;0.80;;;21.20;89.90;;;;;;5042194;28;20053;-71
2022/06/27 10:48:44;;;;;;;1.17;0.63;;;21.10;90.40;;;;;;5043878;28;20068;-71
2022/06/27 10:51:33;;;;;;;1.95;0.73;;;21.00;89.50;;;;;;5042121;28;20045;-72
2022/06/27 10:54:06;;;;;;;1.80;0.65;;;20.90;90.00;;;;;;5044071;28;20137;-71
2022/06/27 10:56:51;;;;;;;1.52;0.55;;;20.70;90.20;;;;;;5042387;28;20428;-71
2022/06/27 10:59:25;;;;;;;2.10;0.80;;;20.40;90.60;;;;;;5026947;28;20081;-72
2022/06/27 11:01:57;;;;;;;2.50;0.80;;;20.10;91.20;;;;;;5044139;28;20059;-71
2022/06/27 11:04:27;;;;;;;1.48;0.75;;;20.10;91.90;;;;;;5045411;28;20048;-72
2022/06/27 11:06:59;;;;;;;2.08;0.80;;;20.30;92.20;;;;;;5009705;28;20127;-72
2022/06/27 11:09:52;;;;;;;0.70;0.40;;;20.40;91.70;;;;;;5025293;28;20103;-71
2022/06/27 11:12:27;;;;;;;;;;;20.60;90.40;;;;;;5022574;28;20535;-71
2022/06/27 11:14:58;;;;;;;0.60;0.30;;;20.70;90.60;;;;;;5045135;28;19956;-71
2022/06/27 11:17:41;;;;;;;2.15;0.60;;;21.00;90.80;;;;;;5027668;28;20052;-71
2022/06/27 11:20:12;;;;;;;1.63;0.75;;;21.10;91.00;;;;;;5043371;28;20076;-71
2022/06/27 11:23:01;;;;;;;1.75;0.50;;;21.10;91.10;;;;;;5043853;28;20065;-71
2022/06/27 11:25:29;;;;;;;0.65;0.30;;;21.10;90.60;;;;;;5023035;28;20049;-71
2022/06/27 11:27:55;;;;;;;0.70;0.40;;;21.10;90.00;;;;;;5041023;28;20080;-71
2022/06/27 11:33:16;;;;;;;0.38;0.20;;;21.50;89.30;;;;;;5043696;28;20055;-71
2022/06/27 11:35:43;;;;;;;0.25;0.20;;;21.70;89.20;;;;;;5010748;28;20514;-72
2022/06/27 11:38:09;;;;;;;0.20;0.20;;;21.70;88.90;;;;;;5043556;28;20080;-72
2022/06/27 11:40:36;;;;;;;0.35;0.17;;;22.00;88.30;;;;;;5027218;28;20238;-72
2022/06/27 11:43:03;;;;;;;0.43;0.20;;;22.20;87.60;;;;;;5027272;28;20087;-72
2022/06/27 11:45:40;;;;;;;0.20;0.20;;;21.90;87.70;;;;;;5043888;28;20099;-72
2022/06/27 11:48:12;;;;;;;0.13;0.13;;;21.50;87.90;;;;;;5010245;28;20080;-72
2022/06/27 11:50:39;;;;;;;0.15;0.15;;;21.20;89.50;;;;;;5045095;28;20073;-72
2022/06/27 11:53:05;;;;;;;0.22;0.17;;;21.00;90.10;;;;;;5026964;28;20667;-71
2022/06/27 11:55:32;;;;;;;0.17;0.17;;;21.00;90.30;;;;;;5043703;28;20044;-72
2022/06/27 11:58:00;;;;;;;0.10;0.10;;;21.00;90.00;;;;;;5027484;28;20487;-71
2022/06/27 12:00:33;;;;;;;0.10;0.10;;;20.80;90.30;;;;;;5045786;28;20049;-71
2022/06/27 12:03:09;;;;;;;0.20;0.10;;;20.90;90.70;;;;;;5027536;28;20286;-71
2022/06/27 12:05:38;;;;;;;0.22;0.20;;;21.10;90.00;;;;;;5027641;28;20051;-71
2022/06/27 12:08:12;;;;;;;0.10;0.10;;;21.30;90.20;;;;;;5027253;28;20116;-71
2022/06/27 12:11:17;;;;;;;0.20;0.20;;;21.30;90.60;;;;;;5043024;28;20052;-71
2022/06/27 12:13:36;;;;;;;0.65;0.35;;;21.00;90.90;;;;;;5043436;28;20076;-71
2022/06/27 12:16:06;;;;;;;0.10;0.10;;;20.90;91.60;;;;;;5027643;28;20122;-71
2022/06/27 12:18:37;;;;;;;0.10;0.10;;;20.80;91.70;;;;;;5027080;28;20073;-71
2022/06/27 12:21:04;;;;;;;0.57;0.50;;;20.60;92.40;;;;;;5027759;28;20049;-71
2022/06/27 12:23:31;;;;;;;0.45;0.30;;;20.90;92.20;;;;;;5042826;28;20354;-71
2022/06/27 12:25:58;;;;;;;0.60;0.40;;;21.10;91.90;;;;;;5039768;28;20443;-71
2022/06/27 12:28:24;;;;;;;0.43;0.40;;;21.50;92.20;;;;;;5008696;28;20134;-71
2022/06/27 12:30:52;;;;;;;0.73;0.25;;;22.30;91.80;;;;;;5043727;28;20384;-71
2022/06/27 12:33:19;;;;;;;0.30;0.30;;;22.40;90.90;;;;;;5042540;28;20064;-72
2022/06/27 12:35:46;;;;;;;0.47;0.30;;;22.60;91.00;;;;;;5044793;28;20140;-72
2022/06/27 12:38:12;;;;;;;0.30;0.30;;;22.90;90.70;;;;;;5048317;28;20328;-72
2022/06/27 12:40:39;;;;;;;0.35;0.30;;;22.90;90.20;;;;;;5030298;28;20120;-72
2022/06/27 12:43:06;;;;;;;0.35;0.35;;;22.80;90.30;;;;;;5048213;28;20087;-72
2022/06/27 12:45:34;;;;;;;0.28;0.28;;;23.00;90.40;;;;;;5048482;28;20464;-72
2022/06/27 12:48:05;;;;;;;1.10;0.65;;;23.60;88.80;;;;;;5046277;28;20052;-72
2022/06/27 12:50:32;;;;;;;0.50;0.50;;;23.90;87.90;;;;;;5046478;28;20053;-72
2022/06/27 12:52:59;;;;;;;0.55;0.40;;;23.70;87.20;;;;;;5045841;28;20053;-72
2022/06/27 12:55:25;;;;;;;0.35;0.30;;;23.70;87.30;;;;;;5047528;28;20044;-72
2022/06/27 12:57:52;;;;;;;0.30;0.30;;;23.60;86.60;;;;;;5030615;28;20061;-72
2022/06/27 13:00:19;;;;;;;0.17;0.17;;;23.60;87.30;;;;;;5046980;28;20132;-72